Flight Track Log - Related Links

Times and Time Zones

All times are in EDT time to prevent confusion due to time zone crossing. See the DLH917 flight status page for this flight to view local times or setup timezone preferences in your user account.

Time Position Orientation Groundspeed Altitude Reporting Facility
EDT Latitude Longitude Course Direction KTS MPH feet Rate Location/Type
Mon 02:12:00 PM 51.4284 -0.0534 101° East  Level Estimated
Mon 02:13:00 PM 51.4117 0.0825 101° East  Level Estimated
Mon 02:14:00 PM 51.3949 0.2182 101° East  Level Estimated
Mon 02:15:00 PM 51.3779 0.3538 101° East  Level Estimated
Mon 02:16:00 PM 51.3607 0.4893 101° East  Level Estimated
Mon 02:17:00 PM 51.3434 0.6247 102° East  Level Estimated
Mon 02:18:00 PM 51.3259 0.7600 102° East  Level Estimated
Mon 02:19:00 PM 51.3056 0.9158 102° East  Level Estimated
Mon 02:20:00 PM 51.2851 1.0715 102° East  Level Estimated
Mon 02:21:00 PM 51.2644 1.2270 102° East  Level Estimated
Mon 02:22:00 PM 51.2434 1.3824 102° East  Level Estimated
Mon 02:23:00 PM 51.2223 1.5377 102° East  Level Estimated
Mon 02:24:00 PM 51.2009 1.6928 102° East  Level Estimated
Mon 02:25:00 PM 51.1794 1.8478 102° East  Level Estimated
Mon 02:26:00 PM 51.1576 2.0026 103° East  Level Estimated
Mon 02:27:00 PM 51.1356 2.1573 103° East  Level Estimated
Mon 02:28:00 PM 51.1134 2.3118 103° East  Level Estimated
Mon 02:29:00 PM 51.0911 2.4662 103° East  Level Estimated
Mon 02:30:00 PM 51.0685 2.6204 103° East  Level Estimated
Mon 02:31:00 PM 51.0457 2.7745 103° East  Level Estimated
Mon 02:32:00 PM 51.0227 2.9284 103° East  Level Estimated
Mon 02:33:00 PM 50.9996 3.0822 103° East  Level Estimated
Mon 02:34:00 PM 50.9762 3.2358 104° East  Level Estimated
Mon 02:35:00 PM 50.9526 3.3893 104° East  Level Estimated
Mon 02:36:00 PM 50.9288 3.5426 104° East  Level Estimated
Mon 02:37:00 PM 50.9048 3.6957 104° East  Level Estimated
Mon 02:38:00 PM 50.8806 3.8487 104° East  Level Estimated
Mon 02:39:00 PM 50.8562 4.0016 104° East  Level Estimated
Mon 02:40:00 PM 50.8316 4.1542 104° East  Level Estimated
Mon 02:41:00 PM 50.8068 4.3067 104° East  Level Estimated
Mon 02:42:00 PM 50.7819 4.4591 104° East  Level Estimated
Mon 02:43:00 PM 50.7567 4.6113 105° East  Level Estimated
Mon 02:44:00 PM 50.7313 4.7633 105° East  Level Estimated
Mon 02:45:00 PM 50.7057 4.9152 105° East  Level Estimated
Mon 02:46:00 PM 50.6800 5.0669 105° East  Level Estimated
Mon 02:47:00 PM 50.6540 5.2184 105° East  Level Estimated
Mon 02:48:00 PM 50.6278 5.3697 105° East  Level Estimated
Mon 02:49:00 PM 50.6015 5.5209 105° East  Level Estimated
Mon 02:50:00 PM 50.5749 5.6719 105° East  Level Estimated
Mon 02:51:00 PM 50.5481 5.8228 106° East  Level Estimated
Mon 02:52:00 PM 50.5212 5.9734 106° East  Level Estimated
Mon 02:53:00 PM 50.4940 6.1239 106° East  Level Estimated
Mon 02:54:00 PM 50.4667 6.2743 106° East  Level Estimated
Mon 02:55:00 PM 50.4392 6.4244 106° East  Level Estimated
Mon 02:56:00 PM 50.4115 6.5744 106° East  Level Estimated
Mon 02:57:00 PM 50.3835 6.7242 106° East  Level Estimated
Mon 02:58:00 PM 50.3554 6.8738 106° East  Level Estimated
Mon 02:59:00 PM 50.3271 7.0233 106° East  Level Estimated
Mon 03:00:00 PM 50.2986 7.1725 107° East  Level Estimated
Mon 03:01:00 PM 50.2700 7.3216 107° East  Level Estimated
Mon 03:02:00 PM 50.2411 7.4705 107° East  Level Estimated
Mon 03:03:00 PM 50.2120 7.6192 107° East  Level Estimated
Mon 03:04:00 PM 50.1828 7.7678 107° East  Level Estimated
Mon 03:05:00 PM 50.1533 7.9162 107° East  Level Estimated
Mon 03:06:00 PM 50.1237 8.0643 107° East  Level Estimated
Mon 03:07:00 PM 50.0939 8.2123 107° East  Level Estimated
Mon 03:08:00 PM 50.0639 8.3602 107° East  Level Estimated
Mon 03:09:00 PM 50.0337 8.5078 108° East  Level Estimated
Mon 03:10:00 PM 50.0264 8.5431 108° East  Level Estimated
Mon 03:11:00 PM 50.0264 8.5431 73° East  Level Estimated
Mon 03:12:00 PM 50.0264 8.5431 73° East  Level Estimated
Mon 03:13:00 PM 50.0264 8.5431 73° East  Level Estimated
Mon 03:14:00 PM 50.0264 8.5431 73° East  Level Estimated
Mon 03:15:00 PM 50.0264 8.5431 73° East  Level Estimated
Mon 03:16:00 PM 50.0264 8.5431 73° East  Level Estimated
Mon 03:17:00 PM 50.0264 8.5431 73° East  Level Estimated
Mon 03:18:00 PM 50.0264 8.5431 73° East  Level Estimated
Mon 03:19:00 PM 50.0264 8.5431 73° East  Level Estimated
Mon 03:20:00 PM 50.0264 8.5431 73° East  Level Estimated
Mon 03:21:00 PM 50.0264 8.5431 73° East  Level Estimated
Mon 03:22:00 PM 50.0264 8.5431 73° East  Level Estimated
Mon 03:23:00 PM 50.0264 8.5431 73° East  Level Estimated
Mon 03:24:00 PM 50.0264 8.5431 73° East  Level Estimated

Login

Don't have an account? Register now (free) for customized features, flight alerts, and more!